sensor_id;sensor_type;location;lat;lon;timestamp;temperature;humidity
62581;DHT22;48640;48.770;9.148;2023-01-26T00:01:52;2.50;99.90
62581;DHT22;48640;48.770;9.148;2023-01-26T00:04:19;2.60;99.90
62581;DHT22;48640;48.770;9.148;2023-01-26T00:06:46;2.70;99.90
62581;DHT22;48640;48.770;9.148;2023-01-26T00:09:13;2.70;99.90
62581;DHT22;48640;48.770;9.148;2023-01-26T00:11:40;2.60;99.90
62581;DHT22;48640;48.770;9.148;2023-01-26T00:14:07;2.60;99.90
62581;DHT22;48640;48.770;9.148;2023-01-26T00:16:35;2.50;99.90
62581;DHT22;48640;48.770;9.148;2023-01-26T00:19:02;2.40;99.90
62581;DHT22;48640;48.770;9.148;2023-01-26T00:21:29;2.60;99.90
62581;DHT22;48640;48.770;9.148;2023-01-26T00:23:57;2.80;99.90
62581;DHT22;48640;48.770;9.148;2023-01-26T00:26:25;2.90;99.90
62581;DHT22;48640;48.770;9.148;2023-01-26T00:28:53;2.90;99.90
62581;DHT22;48640;48.770;9.148;2023-01-26T00:31:21;3.00;99.90
62581;DHT22;48640;48.770;9.148;2023-01-26T00:33:50;3.00;99.90
62581;DHT22;48640;48.770;9.148;2023-01-26T00:36:17;3.00;99.90
62581;DHT22;48640;48.770;9.148;2023-01-26T00:38:44;3.00;99.90
62581;DHT22;48640;48.770;9.148;2023-01-26T00:41:11;2.90;99.90
62581;DHT22;48640;48.770;9.148;2023-01-26T00:43:59;2.90;99.90
62581;DHT22;48640;48.770;9.148;2023-01-26T00:46:26;3.00;99.90
62581;DHT22;48640;48.770;9.148;2023-01-26T00:48:54;2.90;99.90
62581;DHT22;48640;48.770;9.148;2023-01-26T00:51:20;3.00;99.90
62581;DHT22;48640;48.770;9.148;2023-01-26T00:53:47;2.90;99.90
62581;DHT22;48640;48.770;9.148;2023-01-26T00:56:14;2.90;99.90
62581;DHT22;48640;48.770;9.148;2023-01-26T00:58:41;2.90;99.90
62581;DHT22;48640;48.770;9.148;2023-01-26T01:01:09;2.90;99.90
62581;DHT22;48640;48.770;9.148;2023-01-26T01:03:35;2.90;99.90
62581;DHT22;48640;48.770;9.148;2023-01-26T01:06:04;2.90;99.90
62581;DHT22;48640;48.770;9.148;2023-01-26T01:08:31;2.90;99.90
62581;DHT22;48640;48.770;9.148;2023-01-26T01:11:05;2.80;99.90
62581;DHT22;48640;48.770;9.148;2023-01-26T01:13:32;2.70;99.90
62581;DHT22;48640;48.770;9.148;2023-01-26T01:15:59;2.70;99.90
62581;DHT22;48640;48.770;9.148;2023-01-26T01:18:25;2.60;99.90
62581;DHT22;48640;48.770;9.148;2023-01-26T01:20:52;2.60;99.90
62581;DHT22;48640;48.770;9.148;2023-01-26T01:23:20;2.60;99.90
62581;DHT22;48640;48.770;9.148;2023-01-26T01:25:55;2.50;99.90
62581;DHT22;48640;48.770;9.148;2023-01-26T01:28:22;2.50;99.90
62581;DHT22;48640;48.770;9.148;2023-01-26T01:30:49;2.50;99.90
62581;DHT22;48640;48.770;9.148;2023-01-26T01:33:16;2.50;99.90
62581;DHT22;48640;48.770;9.148;2023-01-26T01:35:42;2.50;99.90
62581;DHT22;48640;48.770;9.148;2023-01-26T01:38:09;2.40;99.90
62581;DHT22;48640;48.770;9.148;2023-01-26T01:40:41;2.50;99.90
62581;DHT22;48640;48.770;9.148;2023-01-26T01:43:10;2.70;99.90
62581;DHT22;48640;48.770;9.148;2023-01-26T01:45:42;2.60;99.90
62581;DHT22;48640;48.770;9.148;2023-01-26T01:48:14;2.50;99.90
62581;DHT22;48640;48.770;9.148;2023-01-26T01:50:43;2.50;99.90
62581;DHT22;48640;48.770;9.148;2023-01-26T01:53:12;2.50;99.90
62581;DHT22;48640;48.770;9.148;2023-01-26T01:55:42;2.30;99.90
62581;DHT22;48640;48.770;9.148;2023-01-26T01:58:09;2.30;99.90
62581;DHT22;48640;48.770;9.148;2023-01-26T02:00:36;2.20;99.90
62581;DHT22;48640;48.770;9.148;2023-01-26T02:03:05;2.30;99.90
62581;DHT22;48640;48.770;9.148;2023-01-26T02:05:45;2.20;99.90
62581;DHT22;48640;48.770;9.148;2023-01-26T02:08:15;2.30;99.90
62581;DHT22;48640;48.770;9.148;2023-01-26T02:10:47;2.20;99.90
62581;DHT22;48640;48.770;9.148;2023-01-26T02:13:15;2.30;99.90
62581;DHT22;48640;48.770;9.148;2023-01-26T02:15:42;2.20;99.90
62581;DHT22;48640;48.770;9.148;2023-01-26T02:18:09;2.20;99.90
62581;DHT22;48640;48.770;9.148;2023-01-26T02:20:42;2.20;99.90
62581;DHT22;48640;48.770;9.148;2023-01-26T02:23:19;2.20;99.90
62581;DHT22;48640;48.770;9.148;2023-01-26T02:25:57;2.20;99.90
62581;DHT22;48640;48.770;9.148;2023-01-26T02:28:26;2.20;99.90
62581;DHT22;48640;48.770;9.148;2023-01-26T02:30:53;2.10;99.90
62581;DHT22;48640;48.770;9.148;2023-01-26T02:33:22;2.10;99.90
62581;DHT22;48640;48.770;9.148;2023-01-26T02:35:49;2.20;99.90
62581;DHT22;48640;48.770;9.148;2023-01-26T02:38:17;2.20;99.90
62581;DHT22;48640;48.770;9.148;2023-01-26T02:40:49;2.00;99.90
62581;DHT22;48640;48.770;9.148;2023-01-26T02:43:18;2.10;99.90
62581;DHT22;48640;48.770;9.148;2023-01-26T02:45:44;2.30;99.90
62581;DHT22;48640;48.770;9.148;2023-01-26T02:48:11;2.20;99.90
62581;DHT22;48640;48.770;9.148;2023-01-26T02:50:37;2.20;99.90
62581;DHT22;48640;48.770;9.148;2023-01-26T02:53:03;2.20;99.90
62581;DHT22;48640;48.770;9.148;2023-01-26T02:55:30;2.20;99.90
62581;DHT22;48640;48.770;9.148;2023-01-26T02:57:58;2.20;99.90
62581;DHT22;48640;48.770;9.148;2023-01-26T03:00:28;2.20;99.90
62581;DHT22;48640;48.770;9.148;2023-01-26T03:02:56;2.20;99.90
62581;DHT22;48640;48.770;9.148;2023-01-26T03:05:24;2.30;99.90
62581;DHT22;48640;48.770;9.148;2023-01-26T03:07:51;2.30;99.90
62581;DHT22;48640;48.770;9.148;2023-01-26T03:10:18;2.10;99.90
62581;DHT22;48640;48.770;9.148;2023-01-26T03:12:48;2.00;99.90
62581;DHT22;48640;48.770;9.148;2023-01-26T03:15:15;1.80;99.90
62581;DHT22;48640;48.770;9.148;2023-01-26T03:18:05;1.70;99.90
62581;DHT22;48640;48.770;9.148;2023-01-26T03:20:56;1.70;99.90
62581;DHT22;48640;48.770;9.148;2023-01-26T03:23:41;1.90;99.90
62581;DHT22;48640;48.770;9.148;2023-01-26T03:26:25;2.10;99.90
62581;DHT22;48640;48.770;9.148;2023-01-26T03:29:09;2.30;99.90
62581;DHT22;48640;48.770;9.148;2023-01-26T03:31:36;2.40;99.90
62581;DHT22;48640;48.770;9.148;2023-01-26T03:34:04;2.50;99.90
62581;DHT22;48640;48.770;9.148;2023-01-26T03:36:31;2.60;99.90
62581;DHT22;48640;48.770;9.148;2023-01-26T03:38:57;2.50;99.90
62581;DHT22;48640;48.770;9.148;2023-01-26T03:41:24;2.50;99.90
62581;DHT22;48640;48.770;9.148;2023-01-26T03:44:09;2.50;99.90
62581;DHT22;48640;48.770;9.148;2023-01-26T03:46:53;2.50;99.90
62581;DHT22;48640;48.770;9.148;2023-01-26T03:49:38;2.50;99.90
62581;DHT22;48640;48.770;9.148;2023-01-26T03:52:23;2.60;99.90
62581;DHT22;48640;48.770;9.148;2023-01-26T03:55:07;2.60;99.90
62581;DHT22;48640;48.770;9.148;2023-01-26T03:57:51;2.20;99.90
62581;DHT22;48640;48.770;9.148;2023-01-26T04:00:18;2.00;99.90
62581;DHT22;48640;48.770;9.148;2023-01-26T04:02:46;1.90;99.90
62581;DHT22;48640;48.770;9.148;2023-01-26T04:05:31;1.80;99.90
62581;DHT22;48640;48.770;9.148;2023-01-26T04:08:16;1.70;99.90
62581;DHT22;48640;48.770;9.148;2023-01-26T04:10:49;1.80;99.90
62581;DHT22;48640;48.770;9.148;2023-01-26T04:13:17;1.90;99.90
62581;DHT22;48640;48.770;9.148;2023-01-26T04:16:01;1.80;99.90
62581;DHT22;48640;48.770;9.148;2023-01-26T04:18:46;1.80;99.90
62581;DHT22;48640;48.770;9.148;2023-01-26T04:21:31;1.80;99.90
62581;DHT22;48640;48.770;9.148;2023-01-26T04:23:59;1.90;99.90
62581;DHT22;48640;48.770;9.148;2023-01-26T04:26:27;1.90;99.90
62581;DHT22;48640;48.770;9.148;2023-01-26T04:28:59;1.90;99.90
62581;DHT22;48640;48.770;9.148;2023-01-26T04:31:26;1.90;99.90
62581;DHT22;48640;48.770;9.148;2023-01-26T04:33:53;1.90;99.90
62581;DHT22;48640;48.770;9.148;2023-01-26T04:36:20;2.00;99.90
62581;DHT22;48640;48.770;9.148;2023-01-26T04:38:48;2.10;99.90
62581;DHT22;48640;48.770;9.148;2023-01-26T04:41:15;2.20;99.90
62581;DHT22;48640;48.770;9.148;2023-01-26T04:43:42;2.30;99.90
62581;DHT22;48640;48.770;9.148;2023-01-26T04:46:10;2.10;99.90
62581;DHT22;48640;48.770;9.148;2023-01-26T04:48:37;2.00;99.90
62581;DHT22;48640;48.770;9.148;2023-01-26T04:51:05;1.90;99.90
62581;DHT22;48640;48.770;9.148;2023-01-26T04:53:33;1.90;99.90
62581;DHT22;48640;48.770;9.148;2023-01-26T04:56:01;1.80;99.90
62581;DHT22;48640;48.770;9.148;2023-01-26T04:58:28;1.90;99.90
62581;DHT22;48640;48.770;9.148;2023-01-26T05:00:56;1.70;99.90
62581;DHT22;48640;48.770;9.148;2023-01-26T05:03:25;1.60;99.90
62581;DHT22;48640;48.770;9.148;2023-01-26T05:05:53;1.60;99.90
62581;DHT22;48640;48.770;9.148;2023-01-26T05:08:21;1.60;99.90
62581;DHT22;48640;48.770;9.148;2023-01-26T05:10:48;1.50;99.90
62581;DHT22;48640;48.770;9.148;2023-01-26T05:13:17;1.60;99.90
62581;DHT22;48640;48.770;9.148;2023-01-26T05:15:45;1.60;99.90
62581;DHT22;48640;48.770;9.148;2023-01-26T05:18:11;1.70;99.90
62581;DHT22;48640;48.770;9.148;2023-01-26T05:20:38;1.70;99.90
62581;DHT22;48640;48.770;9.148;2023-01-26T05:23:05;1.80;99.90
62581;DHT22;48640;48.770;9.148;2023-01-26T05:25:32;1.80;99.90
62581;DHT22;48640;48.770;9.148;2023-01-26T05:27:59;2.00;99.90
62581;DHT22;48640;48.770;9.148;2023-01-26T05:30:27;2.20;99.90
62581;DHT22;48640;48.770;9.148;2023-01-26T05:32:58;2.10;99.90
62581;DHT22;48640;48.770;9.148;2023-01-26T05:35:25;2.20;99.90
62581;DHT22;48640;48.770;9.148;2023-01-26T05:37:52;2.10;99.90
62581;DHT22;48640;48.770;9.148;2023-01-26T05:40:19;2.00;99.90
62581;DHT22;48640;48.770;9.148;2023-01-26T05:42:46;1.90;99.90
62581;DHT22;48640;48.770;9.148;2023-01-26T05:45:13;1.90;99.90
62581;DHT22;48640;48.770;9.148;2023-01-26T05:47:43;1.90;99.90
62581;DHT22;48640;48.770;9.148;2023-01-26T05:50:11;1.90;99.90
62581;DHT22;48640;48.770;9.148;2023-01-26T05:52:38;2.00;99.90
62581;DHT22;48640;48.770;9.148;2023-01-26T05:55:06;1.90;99.90
62581;DHT22;48640;48.770;9.148;2023-01-26T05:57:33;2.00;99.90
62581;DHT22;48640;48.770;9.148;2023-01-26T06:00:01;2.00;99.90
62581;DHT22;48640;48.770;9.148;2023-01-26T06:02:28;1.90;99.90
62581;DHT22;48640;48.770;9.148;2023-01-26T06:04:56;1.70;99.90
62581;DHT22;48640;48.770;9.148;2023-01-26T06:07:23;1.70;99.90
62581;DHT22;48640;48.770;9.148;2023-01-26T06:09:50;1.70;99.90
62581;DHT22;48640;48.770;9.148;2023-01-26T06:12:19;1.70;99.90
62581;DHT22;48640;48.770;9.148;2023-01-26T06:14:46;1.50;99.90
62581;DHT22;48640;48.770;9.148;2023-01-26T06:17:14;1.60;99.90
62581;DHT22;48640;48.770;9.148;2023-01-26T06:19:41;1.70;99.90
62581;DHT22;48640;48.770;9.148;2023-01-26T06:22:10;1.70;99.90
62581;DHT22;48640;48.770;9.148;2023-01-26T06:24:37;1.70;99.90
62581;DHT22;48640;48.770;9.148;2023-01-26T06:27:07;1.40;99.90
62581;DHT22;48640;48.770;9.148;2023-01-26T06:29:34;1.30;99.90
62581;DHT22;48640;48.770;9.148;2023-01-26T06:32:01;1.30;99.90
62581;DHT22;48640;48.770;9.148;2023-01-26T06:34:27;1.30;99.90
62581;DHT22;48640;48.770;9.148;2023-01-26T06:36:54;1.20;99.90
62581;DHT22;48640;48.770;9.148;2023-01-26T06:39:22;1.10;99.90
62581;DHT22;48640;48.770;9.148;2023-01-26T06:41:49;1.00;99.90
62581;DHT22;48640;48.770;9.148;2023-01-26T06:44:16;1.00;99.90
62581;DHT22;48640;48.770;9.148;2023-01-26T06:46:43;1.00;99.90
62581;DHT22;48640;48.770;9.148;2023-01-26T06:49:09;1.10;99.90
62581;DHT22;48640;48.770;9.148;2023-01-26T06:51:52;1.10;99.90
62581;DHT22;48640;48.770;9.148;2023-01-26T06:54:21;1.10;99.90
62581;DHT22;48640;48.770;9.148;2023-01-26T06:56:48;1.20;99.90
62581;DHT22;48640;48.770;9.148;2023-01-26T06:59:15;1.10;99.90
62581;DHT22;48640;48.770;9.148;2023-01-26T07:01:44;1.10;99.90
62581;DHT22;48640;48.770;9.148;2023-01-26T07:04:13;1.00;99.90
62581;DHT22;48640;48.770;9.148;2023-01-26T07:06:40;1.10;99.90
62581;DHT22;48640;48.770;9.148;2023-01-26T07:09:08;1.30;99.90
62581;DHT22;48640;48.770;9.148;2023-01-26T07:11:36;1.40;99.90
62581;DHT22;48640;48.770;9.148;2023-01-26T07:14:03;1.50;99.90
62581;DHT22;48640;48.770;9.148;2023-01-26T07:16:30;1.60;99.90
62581;DHT22;48640;48.770;9.148;2023-01-26T07:18:56;1.60;99.90
62581;DHT22;48640;48.770;9.148;2023-01-26T07:21:23;1.60;99.90
62581;DHT22;48640;48.770;9.148;2023-01-26T07:23:50;1.50;99.90
62581;DHT22;48640;48.770;9.148;2023-01-26T07:26:18;1.70;99.90
62581;DHT22;48640;48.770;9.148;2023-01-26T07:28:46;1.80;99.90
62581;DHT22;48640;48.770;9.148;2023-01-26T07:31:13;1.90;99.90
62581;DHT22;48640;48.770;9.148;2023-01-26T07:33:40;2.00;99.90
62581;DHT22;48640;48.770;9.148;2023-01-26T07:36:07;2.00;99.90
62581;DHT22;48640;48.770;9.148;2023-01-26T07:38:35;1.90;99.90
62581;DHT22;48640;48.770;9.148;2023-01-26T07:41:07;1.90;99.90
62581;DHT22;48640;48.770;9.148;2023-01-26T07:43:35;1.90;99.90
62581;DHT22;48640;48.770;9.148;2023-01-26T07:46:04;2.00;99.90
62581;DHT22;48640;48.770;9.148;2023-01-26T07:48:31;1.60;99.90
62581;DHT22;48640;48.770;9.148;2023-01-26T07:50:59;1.60;99.90
62581;DHT22;48640;48.770;9.148;2023-01-26T07:53:27;1.30;99.90
62581;DHT22;48640;48.770;9.148;2023-01-26T07:56:04;1.20;99.90
62581;DHT22;48640;48.770;9.148;2023-01-26T07:58:31;1.10;99.90
62581;DHT22;48640;48.770;9.148;2023-01-26T08:01:05;0.90;99.90
62581;DHT22;48640;48.770;9.148;2023-01-26T08:03:32;1.00;99.90
62581;DHT22;48640;48.770;9.148;2023-01-26T08:05:59;1.10;99.90
62581;DHT22;48640;48.770;9.148;2023-01-26T08:08:26;1.00;99.90
62581;DHT22;48640;48.770;9.148;2023-01-26T08:10:55;0.90;99.90
62581;DHT22;48640;48.770;9.148;2023-01-26T08:13:22;0.80;99.90
62581;DHT22;48640;48.770;9.148;2023-01-26T08:15:49;0.90;99.90
62581;DHT22;48640;48.770;9.148;2023-01-26T08:18:17;1.00;99.90
62581;DHT22;48640;48.770;9.148;2023-01-26T08:20:49;1.20;99.90
62581;DHT22;48640;48.770;9.148;2023-01-26T08:23:16;1.20;99.90
62581;DHT22;48640;48.770;9.148;2023-01-26T08:25:42;1.40;99.90
62581;DHT22;48640;48.770;9.148;2023-01-26T08:28:09;1.50;99.90
62581;DHT22;48640;48.770;9.148;2023-01-26T08:30:36;1.60;99.90
62581;DHT22;48640;48.770;9.148;2023-01-26T08:33:03;1.70;99.90
62581;DHT22;48640;48.770;9.148;2023-01-26T08:35:32;1.60;99.90
62581;DHT22;48640;48.770;9.148;2023-01-26T08:37:59;1.60;99.90
62581;DHT22;48640;48.770;9.148;2023-01-26T08:40:26;1.70;99.90
62581;DHT22;48640;48.770;9.148;2023-01-26T08:42:53;1.70;99.90
62581;DHT22;48640;48.770;9.148;2023-01-26T08:45:20;1.60;99.90
62581;DHT22;48640;48.770;9.148;2023-01-26T08:47:48;1.60;99.90
62581;DHT22;48640;48.770;9.148;2023-01-26T08:50:15;1.60;99.90
62581;DHT22;48640;48.770;9.148;2023-01-26T08:52:43;1.60;99.90
62581;DHT22;48640;48.770;9.148;2023-01-26T08:55:11;1.50;99.90
62581;DHT22;48640;48.770;9.148;2023-01-26T08:57:38;1.60;99.90
62581;DHT22;48640;48.770;9.148;2023-01-26T09:00:05;1.70;99.90
62581;DHT22;48640;48.770;9.148;2023-01-26T09:02:33;1.90;99.90
62581;DHT22;48640;48.770;9.148;2023-01-26T09:04:59;2.00;99.90
62581;DHT22;48640;48.770;9.148;2023-01-26T09:07:26;1.90;99.90
62581;DHT22;48640;48.770;9.148;2023-01-26T09:09:54;2.00;99.90
62581;DHT22;48640;48.770;9.148;2023-01-26T09:12:21;2.00;99.90
62581;DHT22;48640;48.770;9.148;2023-01-26T09:14:48;2.00;99.90
62581;DHT22;48640;48.770;9.148;2023-01-26T09:17:15;2.10;99.90
62581;DHT22;48640;48.770;9.148;2023-01-26T09:19:42;2.20;99.90
62581;DHT22;48640;48.770;9.148;2023-01-26T09:22:09;2.20;99.80
62581;DHT22;48640;48.770;9.148;2023-01-26T09:24:35;2.20;99.90
62581;DHT22;48640;48.770;9.148;2023-01-26T09:27:03;2.10;99.60
62581;DHT22;48640;48.770;9.148;2023-01-26T09:29:30;2.10;99.80
62581;DHT22;48640;48.770;9.148;2023-01-26T09:31:57;2.10;99.60
62581;DHT22;48640;48.770;9.148;2023-01-26T09:34:24;2.00;99.70
62581;DHT22;48640;48.770;9.148;2023-01-26T09:36:51;1.80;99.90
62581;DHT22;48640;48.770;9.148;2023-01-26T09:39:17;1.70;99.90
62581;DHT22;48640;48.770;9.148;2023-01-26T09:42:06;1.60;99.90
62581;DHT22;48640;48.770;9.148;2023-01-26T09:44:44;1.60;99.90
62581;DHT22;48640;48.770;9.148;2023-01-26T09:47:19;1.80;99.90
62581;DHT22;48640;48.770;9.148;2023-01-26T09:49:53;1.90;99.90
62581;DHT22;48640;48.770;9.148;2023-01-26T09:52:25;2.00;99.90
62581;DHT22;48640;48.770;9.148;2023-01-26T09:54:54;2.00;99.90
62581;DHT22;48640;48.770;9.148;2023-01-26T09:57:28;2.00;99.90
62581;DHT22;48640;48.770;9.148;2023-01-26T10:00:03;2.00;99.90
62581;DHT22;48640;48.770;9.148;2023-01-26T10:02:48;2.10;99.90
62581;DHT22;48640;48.770;9.148;2023-01-26T10:05:21;2.00;99.60
62581;DHT22;48640;48.770;9.148;2023-01-26T10:07:50;2.00;99.90
62581;DHT22;48640;48.770;9.148;2023-01-26T10:10:27;2.00;99.70
62581;DHT22;48640;48.770;9.148;2023-01-26T10:12:57;2.00;99.50
62581;DHT22;48640;48.770;9.148;2023-01-26T10:15:29;2.00;99.60
62581;DHT22;48640;48.770;9.148;2023-01-26T10:18:01;1.90;99.60
62581;DHT22;48640;48.770;9.148;2023-01-26T10:20:31;1.70;99.90
62581;DHT22;48640;48.770;9.148;2023-01-26T10:23:02;1.80;99.90
62581;DHT22;48640;48.770;9.148;2023-01-26T10:25:33;1.90;99.80
62581;DHT22;48640;48.770;9.148;2023-01-26T10:28:11;2.10;99.50
62581;DHT22;48640;48.770;9.148;2023-01-26T10:30:38;2.20;99.10
62581;DHT22;48640;48.770;9.148;2023-01-26T10:33:13;2.00;99.20
62581;DHT22;48640;48.770;9.148;2023-01-26T10:35:41;1.80;99.40
62581;DHT22;48640;48.770;9.148;2023-01-26T10:38:25;1.90;99.40
62581;DHT22;48640;48.770;9.148;2023-01-26T10:40:52;2.10;99.30
62581;DHT22;48640;48.770;9.148;2023-01-26T10:43:21;2.20;98.40
62581;DHT22;48640;48.770;9.148;2023-01-26T10:45:49;1.90;98.00
62581;DHT22;48640;48.770;9.148;2023-01-26T10:48:20;1.80;98.20
62581;DHT22;48640;48.770;9.148;2023-01-26T10:50:49;1.70;97.90
62581;DHT22;48640;48.770;9.148;2023-01-26T10:53:17;1.80;98.30
62581;DHT22;48640;48.770;9.148;2023-01-26T10:55:58;1.90;98.50
62581;DHT22;48640;48.770;9.148;2023-01-26T10:58:45;2.00;98.70
62581;DHT22;48640;48.770;9.148;2023-01-26T11:01:13;2.00;98.70
62581;DHT22;48640;48.770;9.148;2023-01-26T11:03:59;2.00;98.20
62581;DHT22;48640;48.770;9.148;2023-01-26T11:06:28;1.90;98.10
62581;DHT22;48640;48.770;9.148;2023-01-26T11:09:08;1.80;98.40
62581;DHT22;48640;48.770;9.148;2023-01-26T11:11:35;1.50;98.60
62581;DHT22;48640;48.770;9.148;2023-01-26T11:14:11;1.70;98.90
62581;DHT22;48640;48.770;9.148;2023-01-26T11:16:40;1.70;99.10
62581;DHT22;48640;48.770;9.148;2023-01-26T11:19:12;1.60;99.40
62581;DHT22;48640;48.770;9.148;2023-01-26T11:21:42;1.70;99.80
62581;DHT22;48640;48.770;9.148;2023-01-26T11:24:14;1.80;99.90
62581;DHT22;48640;48.770;9.148;2023-01-26T11:27:12;1.90;99.70
62581;DHT22;48640;48.770;9.148;2023-01-26T11:29:55;1.80;99.60
62581;DHT22;48640;48.770;9.148;2023-01-26T11:32:29;1.80;99.40
62581;DHT22;48640;48.770;9.148;2023-01-26T11:35:07;1.50;99.50
62581;DHT22;48640;48.770;9.148;2023-01-26T11:37:39;1.40;99.90
62581;DHT22;48640;48.770;9.148;2023-01-26T11:43:31;1.30;99.90
62581;DHT22;48640;48.770;9.148;2023-01-26T11:48:55;1.40;99.90
62581;DHT22;48640;48.770;9.148;2023-01-26T11:51:34;1.50;99.90
62581;DHT22;48640;48.770;9.148;2023-01-26T11:54:22;1.30;99.90
62581;DHT22;48640;48.770;9.148;2023-01-26T11:56:55;1.30;99.90
62581;DHT22;48640;48.770;9.148;2023-01-26T11:59:33;1.30;99.90
62581;DHT22;48640;48.770;9.148;2023-01-26T12:02:11;1.50;99.90
62581;DHT22;48640;48.770;9.148;2023-01-26T12:04:43;1.40;99.90
62581;DHT22;48640;48.770;9.148;2023-01-26T12:07:15;1.60;99.90
62581;DHT22;48640;48.770;9.148;2023-01-26T12:09:45;1.80;99.90
62581;DHT22;48640;48.770;9.148;2023-01-26T12:12:16;1.60;99.90
62581;DHT22;48640;48.770;9.148;2023-01-26T12:14:49;1.30;99.90
62581;DHT22;48640;48.770;9.148;2023-01-26T12:17:33;1.40;99.90
62581;DHT22;48640;48.770;9.148;2023-01-26T12:20:18;1.60;99.90
62581;DHT22;48640;48.770;9.148;2023-01-26T12:22:51;1.50;99.80
62581;DHT22;48640;48.770;9.148;2023-01-26T12:25:26;1.20;99.80
62581;DHT22;48640;48.770;9.148;2023-01-26T12:27:57;1.40;99.90
62581;DHT22;48640;48.770;9.148;2023-01-26T12:30:30;1.60;99.90
62581;DHT22;48640;48.770;9.148;2023-01-26T12:33:01;1.60;99.80
62581;DHT22;48640;48.770;9.148;2023-01-26T12:35:40;1.80;99.20
62581;DHT22;48640;48.770;9.148;2023-01-26T12:38:13;1.90;98.70
62581;DHT22;48640;48.770;9.148;2023-01-26T12:40:51;2.00;98.70
62581;DHT22;48640;48.770;9.148;2023-01-26T12:43:35;2.20;98.10
62581;DHT22;48640;48.770;9.148;2023-01-26T12:46:04;2.20;97.90
62581;DHT22;48640;48.770;9.148;2023-01-26T12:48:39;2.00;98.00
62581;DHT22;48640;48.770;9.148;2023-01-26T12:51:09;2.00;97.90
62581;DHT22;48640;48.770;9.148;2023-01-26T12:53:45;1.80;98.30
62581;DHT22;48640;48.770;9.148;2023-01-26T12:56:20;1.90;98.20
62581;DHT22;48640;48.770;9.148;2023-01-26T12:58:50;2.10;98.10
62581;DHT22;48640;48.770;9.148;2023-01-26T13:01:20;1.80;97.90
62581;DHT22;48640;48.770;9.148;2023-01-26T13:03:54;1.90;98.40
62581;DHT22;48640;48.770;9.148;2023-01-26T13:06:22;2.10;98.60
62581;DHT22;48640;48.770;9.148;2023-01-26T13:08:59;1.80;98.70
62581;DHT22;48640;48.770;9.148;2023-01-26T13:11:41;2.00;99.00
62581;DHT22;48640;48.770;9.148;2023-01-26T13:14:28;2.00;98.90
62581;DHT22;48640;48.770;9.148;2023-01-26T13:16:55;1.90;98.60
62581;DHT22;48640;48.770;9.148;2023-01-26T13:19:49;1.70;98.60
62581;DHT22;48640;48.770;9.148;2023-01-26T13:22:38;1.70;99.40
62581;DHT22;48640;48.770;9.148;2023-01-26T13:25:16;1.70;99.20
62581;DHT22;48640;48.770;9.148;2023-01-26T13:27:45;1.60;98.50
62581;DHT22;48640;48.770;9.148;2023-01-26T13:30:44;1.60;98.90
62581;DHT22;48640;48.770;9.148;2023-01-26T13:33:17;1.70;99.00
62581;DHT22;48640;48.770;9.148;2023-01-26T13:35:48;1.80;99.00
62581;DHT22;48640;48.770;9.148;2023-01-26T13:38:20;2.00;98.80
62581;DHT22;48640;48.770;9.148;2023-01-26T13:40:48;2.10;98.40
62581;DHT22;48640;48.770;9.148;2023-01-26T13:43:23;2.10;97.80
62581;DHT22;48640;48.770;9.148;2023-01-26T13:46:05;1.80;97.90
62581;DHT22;48640;48.770;9.148;2023-01-26T13:48:44;1.90;98.40
62581;DHT22;48640;48.770;9.148;2023-01-26T13:51:18;2.00;98.20
62581;DHT22;48640;48.770;9.148;2023-01-26T13:53:54;2.00;97.50
62581;DHT22;48640;48.770;9.148;2023-01-26T13:56:28;1.80;97.70
62581;DHT22;48640;48.770;9.148;2023-01-26T13:59:03;1.80;98.00
62581;DHT22;48640;48.770;9.148;2023-01-26T14:01:30;1.90;97.70
62581;DHT22;48640;48.770;9.148;2023-01-26T14:04:02;1.90;97.60
62581;DHT22;48640;48.770;9.148;2023-01-26T14:06:31;1.90;97.90
62581;DHT22;48640;48.770;9.148;2023-01-26T14:08:58;1.90;97.90
62581;DHT22;48640;48.770;9.148;2023-01-26T14:11:26;1.70;98.20
62581;DHT22;48640;48.770;9.148;2023-01-26T14:13:55;1.60;98.30
62581;DHT22;48640;48.770;9.148;2023-01-26T14:16:27;1.60;98.30
62581;DHT22;48640;48.770;9.148;2023-01-26T14:19:03;1.60;98.60
62581;DHT22;48640;48.770;9.148;2023-01-26T14:21:45;1.70;98.60
62581;DHT22;48640;48.770;9.148;2023-01-26T14:24:12;1.80;98.40
62581;DHT22;48640;48.770;9.148;2023-01-26T14:26:39;1.80;98.10
62581;DHT22;48640;48.770;9.148;2023-01-26T14:29:10;1.50;98.10
62581;DHT22;48640;48.770;9.148;2023-01-26T14:31:37;1.30;98.50
62581;DHT22;48640;48.770;9.148;2023-01-26T14:34:08;1.20;98.50
62581;DHT22;48640;48.770;9.148;2023-01-26T14:36:37;1.30;98.60
62581;DHT22;48640;48.770;9.148;2023-01-26T14:39:15;1.30;98.80
62581;DHT22;48640;48.770;9.148;2023-01-26T14:41:42;1.30;98.60
62581;DHT22;48640;48.770;9.148;2023-01-26T14:44:10;1.40;98.60
62581;DHT22;48640;48.770;9.148;2023-01-26T14:46:50;1.60;98.60
62581;DHT22;48640;48.770;9.148;2023-01-26T14:49:23;1.70;98.30
62581;DHT22;48640;48.770;9.148;2023-01-26T14:51:55;1.80;98.20
62581;DHT22;48640;48.770;9.148;2023-01-26T14:54:26;1.70;98.20
62581;DHT22;48640;48.770;9.148;2023-01-26T14:56:55;1.60;98.20
62581;DHT22;48640;48.770;9.148;2023-01-26T14:59:34;1.60;98.40
62581;DHT22;48640;48.770;9.148;2023-01-26T15:02:12;1.60;98.70
62581;DHT22;48640;48.770;9.148;2023-01-26T15:04:42;1.80;98.70
62581;DHT22;48640;48.770;9.148;2023-01-26T15:07:35;1.80;98.20
62581;DHT22;48640;48.770;9.148;2023-01-26T15:10:24;1.80;98.20
62581;DHT22;48640;48.770;9.148;2023-01-26T15:12:59;1.90;98.00
62581;DHT22;48640;48.770;9.148;2023-01-26T15:15:27;1.80;97.90
62581;DHT22;48640;48.770;9.148;2023-01-26T15:18:04;1.70;98.30
62581;DHT22;48640;48.770;9.148;2023-01-26T15:20:38;1.80;98.30
62581;DHT22;48640;48.770;9.148;2023-01-26T15:23:20;1.90;98.00
62581;DHT22;48640;48.770;9.148;2023-01-26T15:25:49;2.10;97.90
62581;DHT22;48640;48.770;9.148;2023-01-26T15:28:18;2.10;97.80
62581;DHT22;48640;48.770;9.148;2023-01-26T15:30:49;2.10;97.70
62581;DHT22;48640;48.770;9.148;2023-01-26T15:33:36;2.10;97.50
62581;DHT22;48640;48.770;9.148;2023-01-26T15:36:03;1.90;98.00
62581;DHT22;48640;48.770;9.148;2023-01-26T15:38:31;1.70;98.10
62581;DHT22;48640;48.770;9.148;2023-01-26T15:40:58;1.30;98.60
62581;DHT22;48640;48.770;9.148;2023-01-26T15:43:26;1.20;99.20
62581;DHT22;48640;48.770;9.148;2023-01-26T15:45:54;1.20;99.90
62581;DHT22;48640;48.770;9.148;2023-01-26T15:48:22;1.20;99.90
62581;DHT22;48640;48.770;9.148;2023-01-26T15:50:49;1.40;99.90
62581;DHT22;48640;48.770;9.148;2023-01-26T15:53:18;1.40;99.90
62581;DHT22;48640;48.770;9.148;2023-01-26T15:55:48;1.50;99.70
62581;DHT22;48640;48.770;9.148;2023-01-26T15:58:17;1.70;99.50
62581;DHT22;48640;48.770;9.148;2023-01-26T16:00:44;1.70;98.90
62581;DHT22;48640;48.770;9.148;2023-01-26T16:03:13;1.60;98.80
62581;DHT22;48640;48.770;9.148;2023-01-26T16:05:41;1.60;98.90
62581;DHT22;48640;48.770;9.148;2023-01-26T16:08:09;1.70;98.70
62581;DHT22;48640;48.770;9.148;2023-01-26T16:10:36;1.50;98.80
62581;DHT22;48640;48.770;9.148;2023-01-26T16:13:08;1.40;99.60
62581;DHT22;48640;48.770;9.148;2023-01-26T16:15:38;1.40;99.50